sensor_id;sensor_type;location;lat;lon;timestamp;pressure;altitude;pressure_sealevel;temperature;humidity
71424;BME280;59240;51.370;-0.486;2023-03-14T00:02:04;98635.19;;;11.05;91.62
71424;BME280;59240;51.370;-0.486;2023-03-14T00:04:30;98621.72;;;10.98;91.75
71424;BME280;59240;51.370;-0.486;2023-03-14T00:06:57;98590.66;;;10.79;90.93
71424;BME280;59240;51.370;-0.486;2023-03-14T00:09:23;98602.91;;;10.77;93.46
71424;BME280;59240;51.370;-0.486;2023-03-14T00:11:50;98610.56;;;10.80;92.00
71424;BME280;59240;51.370;-0.486;2023-03-14T00:14:16;98579.44;;;10.63;92.63
71424;BME280;59240;51.370;-0.486;2023-03-14T00:16:45;98630.78;;;10.91;93.30
71424;BME280;59240;51.370;-0.486;2023-03-14T00:19:12;98649.00;;;10.91;93.42
71424;BME280;59240;51.370;-0.486;2023-03-14T00:21:39;98606.16;;;10.66;92.83
71424;BME280;59240;51.370;-0.486;2023-03-14T00:24:07;98632.34;;;10.79;92.94
71424;BME280;59240;51.370;-0.486;2023-03-14T00:26:33;98644.72;;;10.90;92.66
71424;BME280;59240;51.370;-0.486;2023-03-14T00:29:00;98622.09;;;10.76;92.82
71424;BME280;59240;51.370;-0.486;2023-03-14T00:31:26;98632.16;;;10.82;93.43
71424;BME280;59240;51.370;-0.486;2023-03-14T00:33:53;98630.31;;;10.84;92.95
71424;BME280;59240;51.370;-0.486;2023-03-14T00:36:20;98659.91;;;10.98;93.65
71424;BME280;59240;51.370;-0.486;2023-03-14T00:38:49;98651.16;;;10.84;94.76
71424;BME280;59240;51.370;-0.486;2023-03-14T00:41:21;98662.53;;;10.98;93.92
71424;BME280;59240;51.370;-0.486;2023-03-14T00:43:51;98663.06;;;10.88;93.55
71424;BME280;59240;51.370;-0.486;2023-03-14T00:46:17;98647.78;;;10.82;94.98
71424;BME280;59240;51.370;-0.486;2023-03-14T00:48:46;98650.28;;;10.84;93.55
71424;BME280;59240;51.370;-0.486;2023-03-14T00:51:13;98673.47;;;10.88;95.37
71424;BME280;59240;51.370;-0.486;2023-03-14T00:53:41;98670.38;;;10.82;94.69
71424;BME280;59240;51.370;-0.486;2023-03-14T00:56:10;98680.56;;;10.86;95.15
71424;BME280;59240;51.370;-0.486;2023-03-14T00:58:37;98676.44;;;10.82;94.95
71424;BME280;59240;51.370;-0.486;2023-03-14T01:01:10;98672.69;;;10.72;96.65
71424;BME280;59240;51.370;-0.486;2023-03-14T01:03:37;98701.72;;;10.80;94.39
71424;BME280;59240;51.370;-0.486;2023-03-14T01:06:11;98752.47;;;10.73;91.97
71424;BME280;59240;51.370;-0.486;2023-03-14T01:08:38;98810.88;;;10.36;88.28
71424;BME280;59240;51.370;-0.486;2023-03-14T01:11:06;98820.47;;;10.01;88.75
71424;BME280;59240;51.370;-0.486;2023-03-14T01:13:34;98830.44;;;9.75;89.27
71424;BME280;59240;51.370;-0.486;2023-03-14T01:16:05;98832.38;;;9.36;87.54
71424;BME280;59240;51.370;-0.486;2023-03-14T01:18:33;98862.47;;;9.22;88.46
71424;BME280;59240;51.370;-0.486;2023-03-14T01:21:03;98848.16;;;8.95;91.09
71424;BME280;59240;51.370;-0.486;2023-03-14T01:23:30;98878.63;;;8.91;90.92
71424;BME280;59240;51.370;-0.486;2023-03-14T01:25:56;98882.63;;;8.80;92.71
71424;BME280;59240;51.370;-0.486;2023-03-14T01:28:23;98892.56;;;8.70;90.43
71424;BME280;59240;51.370;-0.486;2023-03-14T01:30:49;98897.34;;;8.60;92.05
71424;BME280;59240;51.370;-0.486;2023-03-14T01:33:16;98899.75;;;8.44;91.65
71424;BME280;59240;51.370;-0.486;2023-03-14T01:35:42;98923.88;;;8.46;91.12
71424;BME280;59240;51.370;-0.486;2023-03-14T01:38:09;98900.59;;;8.25;92.27
71424;BME280;59240;51.370;-0.486;2023-03-14T01:40:42;98944.28;;;8.34;93.64
71424;BME280;59240;51.370;-0.486;2023-03-14T01:43:18;98942.72;;;8.30;95.92
71424;BME280;59240;51.370;-0.486;2023-03-14T01:48:26;98955.09;;;8.23;94.32
71424;BME280;59240;51.370;-0.486;2023-03-14T01:50:55;98954.72;;;8.12;92.36
71424;BME280;59240;51.370;-0.486;2023-03-14T01:53:21;98938.94;;;7.96;96.47
71424;BME280;59240;51.370;-0.486;2023-03-14T01:55:50;98963.66;;;8.05;93.50
71424;BME280;59240;51.370;-0.486;2023-03-14T01:58:19;98968.84;;;8.05;94.34
71424;BME280;59240;51.370;-0.486;2023-03-14T02:00:46;98976.78;;;8.00;94.80
71424;BME280;59240;51.370;-0.486;2023-03-14T02:03:16;98986.31;;;8.00;94.16
71424;BME280;59240;51.370;-0.486;2023-03-14T02:05:43;99000.81;;;8.05;96.27
71424;BME280;59240;51.370;-0.486;2023-03-14T02:08:13;99000.13;;;8.00;93.81
71424;BME280;59240;51.370;-0.486;2023-03-14T02:10:44;98998.69;;;7.93;95.10
71424;BME280;59240;51.370;-0.486;2023-03-14T02:13:12;99029.31;;;8.05;93.05
71424;BME280;59240;51.370;-0.486;2023-03-14T02:15:39;99018.91;;;7.85;94.53
71424;BME280;59240;51.370;-0.486;2023-03-14T02:18:06;99056.75;;;7.89;91.88
71424;BME280;59240;51.370;-0.486;2023-03-14T02:23:06;99067.09;;;7.89;91.91
71424;BME280;59240;51.370;-0.486;2023-03-14T02:25:49;99069.50;;;7.72;87.79
71424;BME280;59240;51.370;-0.486;2023-03-14T02:28:18;99071.34;;;7.70;93.00
71424;BME280;59240;51.370;-0.486;2023-03-14T02:30:45;99077.69;;;7.61;88.58
71424;BME280;59240;51.370;-0.486;2023-03-14T02:33:17;99090.81;;;7.56;92.31
71424;BME280;59240;51.370;-0.486;2023-03-14T02:38:29;99112.00;;;7.44;94.37
71424;BME280;59240;51.370;-0.486;2023-03-14T02:40:57;99120.88;;;7.37;92.53
71424;BME280;59240;51.370;-0.486;2023-03-14T02:43:24;99106.78;;;7.21;91.88
71424;BME280;59240;51.370;-0.486;2023-03-14T02:45:52;99118.00;;;7.21;92.62
71424;BME280;59240;51.370;-0.486;2023-03-14T02:48:28;99122.63;;;7.11;93.46
71424;BME280;59240;51.370;-0.486;2023-03-14T02:50:59;99138.94;;;7.13;93.33
71424;BME280;59240;51.370;-0.486;2023-03-14T02:53:33;99149.53;;;7.07;93.64
71424;BME280;59240;51.370;-0.486;2023-03-14T02:56:00;99149.16;;;6.93;90.25
71424;BME280;59240;51.370;-0.486;2023-03-14T02:58:28;99165.47;;;6.95;92.26
71424;BME280;59240;51.370;-0.486;2023-03-14T03:00:55;99169.91;;;6.92;92.47
71424;BME280;59240;51.370;-0.486;2023-03-14T03:03:22;99174.22;;;6.91;92.46
71424;BME280;59240;51.370;-0.486;2023-03-14T03:05:50;99174.53;;;6.82;93.39
71424;BME280;59240;51.370;-0.486;2023-03-14T03:08:19;99190.06;;;6.82;92.69
71424;BME280;59240;51.370;-0.486;2023-03-14T03:10:46;99175.13;;;6.64;91.52
71424;BME280;59240;51.370;-0.486;2023-03-14T03:13:13;99183.78;;;6.63;92.56
71424;BME280;59240;51.370;-0.486;2023-03-14T03:15:40;99197.63;;;6.62;91.08
71424;BME280;59240;51.370;-0.486;2023-03-14T03:18:07;99213.13;;;6.62;91.06
71424;BME280;59240;51.370;-0.486;2023-03-14T03:20:34;99207.19;;;6.58;94.01
71424;BME280;59240;51.370;-0.486;2023-03-14T03:23:00;99199.84;;;6.46;91.72
71424;BME280;59240;51.370;-0.486;2023-03-14T03:25:27;99210.19;;;6.44;91.54
71424;BME280;59240;51.370;-0.486;2023-03-14T03:27:54;99226.00;;;6.35;84.50
71424;BME280;59240;51.370;-0.486;2023-03-14T03:30:21;99223.41;;;6.35;88.90
71424;BME280;59240;51.370;-0.486;2023-03-14T03:32:48;99253.50;;;6.39;88.43
71424;BME280;59240;51.370;-0.486;2023-03-14T03:35:15;99246.59;;;6.38;86.52
71424;BME280;59240;51.370;-0.486;2023-03-14T03:37:41;99253.84;;;6.27;89.59
71424;BME280;59240;51.370;-0.486;2023-03-14T03:40:09;99250.47;;;6.23;86.71
71424;BME280;59240;51.370;-0.486;2023-03-14T03:42:36;99273.69;;;6.26;91.32
71424;BME280;59240;51.370;-0.486;2023-03-14T03:45:03;99276.34;;;6.23;88.23
71424;BME280;59240;51.370;-0.486;2023-03-14T03:47:31;99286.16;;;6.12;83.57
71424;BME280;59240;51.370;-0.486;2023-03-14T03:49:57;99272.66;;;6.01;86.95
71424;BME280;59240;51.370;-0.486;2023-03-14T03:52:24;99287.78;;;5.82;83.88
71424;BME280;59240;51.370;-0.486;2023-03-14T03:54:50;99293.78;;;5.83;80.33
71424;BME280;59240;51.370;-0.486;2023-03-14T03:57:17;99290.31;;;5.85;86.90
71424;BME280;59240;51.370;-0.486;2023-03-14T03:59:44;99296.59;;;5.75;89.24
71424;BME280;59240;51.370;-0.486;2023-03-14T04:02:10;99318.25;;;5.71;78.13
71424;BME280;59240;51.370;-0.486;2023-03-14T04:04:37;99298.63;;;5.64;88.66
71424;BME280;59240;51.370;-0.486;2023-03-14T04:07:05;99318.09;;;5.77;85.57
71424;BME280;59240;51.370;-0.486;2023-03-14T04:09:32;99308.97;;;5.62;87.70
71424;BME280;59240;51.370;-0.486;2023-03-14T04:11:58;99332.75;;;5.75;86.36
71424;BME280;59240;51.370;-0.486;2023-03-14T04:14:25;99342.72;;;5.56;81.82
71424;BME280;59240;51.370;-0.486;2023-03-14T04:16:52;99362.22;;;5.68;87.37
71424;BME280;59240;51.370;-0.486;2023-03-14T04:19:18;99362.56;;;5.54;90.64
71424;BME280;59240;51.370;-0.486;2023-03-14T04:21:45;99395.94;;;5.63;89.73
71424;BME280;59240;51.370;-0.486;2023-03-14T04:24:13;99392.75;;;5.52;87.37
71424;BME280;59240;51.370;-0.486;2023-03-14T04:26:40;99408.16;;;5.57;89.83
71424;BME280;59240;51.370;-0.486;2023-03-14T04:29:06;99419.56;;;5.46;88.32
71424;BME280;59240;51.370;-0.486;2023-03-14T04:31:33;99407.81;;;5.33;87.06
71424;BME280;59240;51.370;-0.486;2023-03-14T04:34:00;99436.00;;;5.44;87.49
71424;BME280;59240;51.370;-0.486;2023-03-14T04:36:26;99431.63;;;5.46;89.20
71424;BME280;59240;51.370;-0.486;2023-03-14T04:38:53;99445.53;;;5.40;88.50
71424;BME280;59240;51.370;-0.486;2023-03-14T04:41:19;99445.63;;;5.37;87.12
71424;BME280;59240;51.370;-0.486;2023-03-14T04:43:46;99447.38;;;5.35;86.93
71424;BME280;59240;51.370;-0.486;2023-03-14T04:46:12;99452.78;;;5.25;87.90
71424;BME280;59240;51.370;-0.486;2023-03-14T04:48:39;99462.28;;;5.21;88.50
71424;BME280;59240;51.370;-0.486;2023-03-14T04:51:06;99462.38;;;5.18;87.55
71424;BME280;59240;51.370;-0.486;2023-03-14T04:53:33;99471.91;;;5.16;88.43
71424;BME280;59240;51.370;-0.486;2023-03-14T04:56:01;99485.50;;;5.24;88.70
71424;BME280;59240;51.370;-0.486;2023-03-14T04:58:27;99460.13;;;5.03;88.06
71424;BME280;59240;51.370;-0.486;2023-03-14T05:00:54;99480.66;;;5.09;87.91
71424;BME280;59240;51.370;-0.486;2023-03-14T05:03:20;99459.53;;;4.90;87.14
71424;BME280;59240;51.370;-0.486;2023-03-14T05:05:48;99480.81;;;5.00;87.65
71424;BME280;59240;51.370;-0.486;2023-03-14T05:08:14;99474.97;;;4.91;88.38
71424;BME280;59240;51.370;-0.486;2023-03-14T05:10:41;99477.63;;;4.88;88.17
71424;BME280;59240;51.370;-0.486;2023-03-14T05:13:07;99503.34;;;4.91;85.00
71424;BME280;59240;51.370;-0.486;2023-03-14T05:15:34;99505.03;;;4.92;85.67
71424;BME280;59240;51.370;-0.486;2023-03-14T05:18:01;99499.97;;;4.89;87.75
71424;BME280;59240;51.370;-0.486;2023-03-14T05:20:27;99516.13;;;4.98;89.30
71424;BME280;59240;51.370;-0.486;2023-03-14T05:22:54;99507.69;;;4.89;88.47
71424;BME280;59240;51.370;-0.486;2023-03-14T05:25:20;99521.38;;;4.94;88.12
71424;BME280;59240;51.370;-0.486;2023-03-14T05:27:47;99517.25;;;4.84;88.55
71424;BME280;59240;51.370;-0.486;2023-03-14T05:30:14;99511.38;;;4.76;87.43
71424;BME280;59240;51.370;-0.486;2023-03-14T05:32:40;99536.13;;;4.86;88.26
71424;BME280;59240;51.370;-0.486;2023-03-14T05:35:07;99550.72;;;4.89;89.66
71424;BME280;59240;51.370;-0.486;2023-03-14T05:37:34;99561.94;;;4.86;89.93
71424;BME280;59240;51.370;-0.486;2023-03-14T05:40:01;99575.50;;;4.98;89.22
71424;BME280;59240;51.370;-0.486;2023-03-14T05:42:27;99541.47;;;4.77;87.96
71424;BME280;59240;51.370;-0.486;2023-03-14T05:44:54;99538.06;;;4.75;88.51
71424;BME280;59240;51.370;-0.486;2023-03-14T05:47:21;99576.53;;;4.89;90.28
71424;BME280;59240;51.370;-0.486;2023-03-14T05:49:47;99579.06;;;4.90;89.53
71424;BME280;59240;51.370;-0.486;2023-03-14T05:52:14;99580.03;;;4.85;84.14
71424;BME280;59240;51.370;-0.486;2023-03-14T05:54:41;99585.81;;;4.98;87.08
71424;BME280;59240;51.370;-0.486;2023-03-14T05:57:08;99580.66;;;4.98;86.94
71424;BME280;59240;51.370;-0.486;2023-03-14T05:59:34;99594.38;;;5.00;87.16
71424;BME280;59240;51.370;-0.486;2023-03-14T06:02:01;99597.81;;;5.02;88.00
71424;BME280;59240;51.370;-0.486;2023-03-14T06:04:28;99625.09;;;5.13;87.73
71424;BME280;59240;51.370;-0.486;2023-03-14T06:06:54;99622.44;;;5.18;87.79
71424;BME280;59240;51.370;-0.486;2023-03-14T06:09:21;99607.22;;;5.04;87.35
71424;BME280;59240;51.370;-0.486;2023-03-14T06:11:49;99608.06;;;5.05;88.05
71424;BME280;59240;51.370;-0.486;2023-03-14T06:14:16;99630.28;;;5.12;88.88
71424;BME280;59240;51.370;-0.486;2023-03-14T06:16:43;99645.59;;;5.21;85.41
71424;BME280;59240;51.370;-0.486;2023-03-14T06:19:10;99648.38;;;5.12;86.69
71424;BME280;59240;51.370;-0.486;2023-03-14T06:21:39;99621.03;;;5.02;86.85
71424;BME280;59240;51.370;-0.486;2023-03-14T06:24:09;99672.97;;;5.31;86.26
71424;BME280;59240;51.370;-0.486;2023-03-14T06:26:38;99632.97;;;5.06;86.58
71424;BME280;59240;51.370;-0.486;2023-03-14T06:29:07;99630.28;;;5.12;88.00
71424;BME280;59240;51.370;-0.486;2023-03-14T06:31:34;99686.56;;;5.42;85.59
71424;BME280;59240;51.370;-0.486;2023-03-14T06:34:02;99659.25;;;5.29;86.83
71424;BME280;59240;51.370;-0.486;2023-03-14T06:36:29;99643.03;;;5.21;85.20
71424;BME280;59240;51.370;-0.486;2023-03-14T06:38:55;99666.03;;;5.33;86.46
71424;BME280;59240;51.370;-0.486;2023-03-14T06:41:22;99666.19;;;5.26;87.69
71424;BME280;59240;51.370;-0.486;2023-03-14T06:43:53;99650.88;;;5.16;89.91
71424;BME280;59240;51.370;-0.486;2023-03-14T06:46:29;99665.38;;;5.24;86.60
71424;BME280;59240;51.370;-0.486;2023-03-14T06:48:55;99723.31;;;5.57;83.94
71424;BME280;59240;51.370;-0.486;2023-03-14T06:51:24;99702.19;;;5.33;86.59
71424;BME280;59240;51.370;-0.486;2023-03-14T06:53:58;99726.91;;;5.48;87.61
71424;BME280;59240;51.370;-0.486;2023-03-14T06:56:28;99719.28;;;5.40;87.52
71424;BME280;59240;51.370;-0.486;2023-03-14T06:58:58;99728.47;;;5.55;87.44
71424;BME280;59240;51.370;-0.486;2023-03-14T07:01:27;99729.41;;;5.53;88.03
71424;BME280;59240;51.370;-0.486;2023-03-14T07:03:58;99753.31;;;5.64;87.64
71424;BME280;59240;51.370;-0.486;2023-03-14T07:06:25;99780.63;;;5.77;86.55
71424;BME280;59240;51.370;-0.486;2023-03-14T07:08:52;99751.78;;;5.54;83.65
71424;BME280;59240;51.370;-0.486;2023-03-14T07:11:19;99790.91;;;5.80;88.36
71424;BME280;59240;51.370;-0.486;2023-03-14T07:13:48;99784.09;;;5.76;87.21
71424;BME280;59240;51.370;-0.486;2023-03-14T07:16:15;99783.34;;;5.71;85.05
71424;BME280;59240;51.370;-0.486;2023-03-14T07:18:42;99761.22;;;5.56;86.14
71424;BME280;59240;51.370;-0.486;2023-03-14T07:24:53;99824.44;;;5.83;83.00
71424;BME280;59240;51.370;-0.486;2023-03-14T07:27:28;99820.22;;;5.79;85.99
71424;BME280;59240;51.370;-0.486;2023-03-14T07:29:58;99780.22;;;5.52;87.95
71424;BME280;59240;51.370;-0.486;2023-03-14T07:32:27;99828.78;;;5.81;84.31
71424;BME280;59240;51.370;-0.486;2023-03-14T07:35:10;99804.97;;;5.65;83.64
71424;BME280;59240;51.370;-0.486;2023-03-14T07:37:42;99805.19;;;5.52;78.34
71424;BME280;59240;51.370;-0.486;2023-03-14T07:43:02;99856.56;;;5.70;77.71
71424;BME280;59240;51.370;-0.486;2023-03-14T07:45:28;99882.94;;;5.89;84.42
71424;BME280;59240;51.370;-0.486;2023-03-14T07:48:09;99864.19;;;5.78;83.71
71424;BME280;59240;51.370;-0.486;2023-03-14T07:50:36;99878.72;;;5.83;84.77
71424;BME280;59240;51.370;-0.486;2023-03-14T07:53:05;99890.69;;;5.90;85.96
71424;BME280;59240;51.370;-0.486;2023-03-14T07:55:34;99867.66;;;5.75;83.69
71424;BME280;59240;51.370;-0.486;2023-03-14T07:58:00;99924.34;;;5.86;80.28
71424;BME280;59240;51.370;-0.486;2023-03-14T08:00:28;99948.25;;;6.01;82.78
71424;BME280;59240;51.370;-0.486;2023-03-14T08:02:55;99963.84;;;5.95;79.16
71424;BME280;59240;51.370;-0.486;2023-03-14T08:05:34;99966.31;;;6.05;84.92
71424;BME280;59240;51.370;-0.486;2023-03-14T08:08:01;99969.72;;;6.07;83.04
71424;BME280;59240;51.370;-0.486;2023-03-14T08:10:30;99986.75;;;6.17;85.05
71424;BME280;59240;51.370;-0.486;2023-03-14T08:13:14;99985.16;;;6.10;83.11
71424;BME280;59240;51.370;-0.486;2023-03-14T08:15:41;99977.50;;;6.03;83.72
71424;BME280;59240;51.370;-0.486;2023-03-14T08:18:07;99993.69;;;6.15;84.68
71424;BME280;59240;51.370;-0.486;2023-03-14T08:20:38;100004.88;;;6.17;86.09
71424;BME280;59240;51.370;-0.486;2023-03-14T08:23:24;99971.66;;;5.92;85.98
71424;BME280;59240;51.370;-0.486;2023-03-14T08:25:53;99975.97;;;5.93;85.97
71424;BME280;59240;51.370;-0.486;2023-03-14T08:28:21;99978.59;;;5.87;86.20
71424;BME280;59240;51.370;-0.486;2023-03-14T08:30:51;100090.63;;;6.45;87.66
71424;BME280;59240;51.370;-0.486;2023-03-14T08:33:32;100012.94;;;5.97;86.95
71424;BME280;59240;51.370;-0.486;2023-03-14T08:36:01;100070.31;;;6.22;85.39
71424;BME280;59240;51.370;-0.486;2023-03-14T08:38:28;100061.00;;;6.12;90.27
71424;BME280;59240;51.370;-0.486;2023-03-14T08:40:58;100106.31;;;6.36;89.21
71424;BME280;59240;51.370;-0.486;2023-03-14T08:43:26;100141.53;;;6.44;85.76
71424;BME280;59240;51.370;-0.486;2023-03-14T08:46:01;100103.13;;;6.18;85.03
71424;BME280;59240;51.370;-0.486;2023-03-14T08:49:08;100061.25;;;5.93;85.94
71424;BME280;59240;51.370;-0.486;2023-03-14T08:51:35;100129.66;;;6.31;85.93
71424;BME280;59240;51.370;-0.486;2023-03-14T08:54:16;100092.88;;;6.11;86.98
71424;BME280;59240;51.370;-0.486;2023-03-14T08:57:00;100087.75;;;6.08;86.28
71424;BME280;59240;51.370;-0.486;2023-03-14T08:59:26;100157.03;;;6.44;85.68
71424;BME280;59240;51.370;-0.486;2023-03-14T09:01:53;100172.53;;;6.47;84.59
71424;BME280;59240;51.370;-0.486;2023-03-14T09:04:21;100168.41;;;6.34;84.39
71424;BME280;59240;51.370;-0.486;2023-03-14T09:06:48;100179.66;;;6.33;84.18
71424;BME280;59240;51.370;-0.486;2023-03-14T09:09:15;100167.69;;;6.26;86.69
71424;BME280;59240;51.370;-0.486;2023-03-14T09:11:41;100216.50;;;6.49;85.38
71424;BME280;59240;51.370;-0.486;2023-03-14T09:14:08;100205.44;;;6.39;84.85
71424;BME280;59240;51.370;-0.486;2023-03-14T09:16:53;100221.94;;;6.29;85.37
71424;BME280;59240;51.370;-0.486;2023-03-14T09:19:23;100224.69;;;6.18;83.94
71424;BME280;59240;51.370;-0.486;2023-03-14T09:21:50;100266.56;;;6.45;86.40
71424;BME280;59240;51.370;-0.486;2023-03-14T09:24:17;100264.16;;;6.31;85.36
71424;BME280;59240;51.370;-0.486;2023-03-14T09:26:44;100228.28;;;6.07;85.27
71424;BME280;59240;51.370;-0.486;2023-03-14T09:29:10;100252.44;;;6.02;83.26
71424;BME280;59240;51.370;-0.486;2023-03-14T09:31:37;100310.78;;;6.28;84.72
71424;BME280;59240;51.370;-0.486;2023-03-14T09:34:06;100302.31;;;6.14;86.66
71424;BME280;59240;51.370;-0.486;2023-03-14T09:36:33;100320.38;;;6.18;86.74
71424;BME280;59240;51.370;-0.486;2023-03-14T09:39:01;100313.59;;;6.07;83.52
71424;BME280;59240;51.370;-0.486;2023-03-14T09:41:31;100338.53;;;6.11;85.24
71424;BME280;59240;51.370;-0.486;2023-03-14T09:46:53;100290.78;;;5.61;85.27
71424;BME280;59240;51.370;-0.486;2023-03-14T09:49:42;100397.97;;;6.17;90.80
71424;BME280;59240;51.370;-0.486;2023-03-14T09:52:23;100410.91;;;6.17;90.55
71424;BME280;59240;51.370;-0.486;2023-03-14T09:55:18;100410.88;;;6.20;88.64
71424;BME280;59240;51.370;-0.486;2023-03-14T09:58:13;100403.88;;;6.29;90.50
71424;BME280;59240;51.370;-0.486;2023-03-14T10:00:40;100402.00;;;6.45;87.31
71424;BME280;59240;51.370;-0.486;2023-03-14T10:05:43;100431.72;;;6.84;89.96
71424;BME280;59240;51.370;-0.486;2023-03-14T10:08:23;100399.19;;;6.64;87.79
71424;BME280;59240;51.370;-0.486;2023-03-14T10:10:54;100403.47;;;6.65;89.02
71424;BME280;59240;51.370;-0.486;2023-03-14T10:13:26;100424.94;;;6.74;87.75
71424;BME280;59240;51.370;-0.486;2023-03-14T10:16:04;100443.00;;;6.79;88.45
71424;BME280;59240;51.370;-0.486;2023-03-14T10:18:34;100449.91;;;6.80;87.43
71424;BME280;59240;51.370;-0.486;2023-03-14T10:21:21;100451.56;;;6.84;82.48
71424;BME280;59240;51.370;-0.486;2023-03-14T10:23:48;100454.16;;;6.84;84.21
71424;BME280;59240;51.370;-0.486;2023-03-14T10:26:18;100480.72;;;7.01;86.27
71424;BME280;59240;51.370;-0.486;2023-03-14T10:28:54;100439.44;;;6.89;89.79
71424;BME280;59240;51.370;-0.486;2023-03-14T10:31:27;100460.72;;;7.11;88.52
71424;BME280;59240;51.370;-0.486;2023-03-14T10:34:17;100504.28;;;7.49;88.34
71424;BME280;59240;51.370;-0.486;2023-03-14T10:36:52;100479.34;;;7.42;84.60
71424;BME280;59240;51.370;-0.486;2023-03-14T10:39:37;100521.09;;;7.82;87.06
71424;BME280;59240;51.370;-0.486;2023-03-14T10:42:29;100527.44;;;8.18;85.80
71424;BME280;59240;51.370;-0.486;2023-03-14T10:45:42;100524.34;;;8.49;85.65
71424;BME280;59240;51.370;-0.486;2023-03-14T10:53:59;100528.47;;;9.07;86.42
71424;BME280;59240;51.370;-0.486;2023-03-14T10:56:28;100503.66;;;8.91;80.15
71424;BME280;59240;51.370;-0.486;2023-03-14T10:58:59;100505.31;;;8.95;82.63
71424;BME280;59240;51.370;-0.486;2023-03-14T11:07:23;100564.75;;;9.55;85.57
71424;BME280;59240;51.370;-0.486;2023-03-14T11:10:07;100581.63;;;9.76;82.59
71424;BME280;59240;51.370;-0.486;2023-03-14T11:15:38;100578.59;;;9.94;73.82
71424;BME280;59240;51.370;-0.486;2023-03-14T11:21:12;100598.03;;;10.18;83.51
71424;BME280;59240;51.370;-0.486;2023-03-14T11:26:27;100616.97;;;10.26;78.67
71424;BME280;59240;51.370;-0.486;2023-03-14T11:29:21;100592.81;;;10.18;77.56
71424;BME280;59240;51.370;-0.486;2023-03-14T11:31:48;100621.69;;;10.46;71.73
71424;BME280;59240;51.370;-0.486;2023-03-14T11:34:39;100621.78;;;10.77;77.27
71424;BME280;59240;51.370;-0.486;2023-03-14T11:39:59;100620.06;;;10.78;78.68
71424;BME280;59240;51.370;-0.486;2023-03-14T11:42:49;100572.97;;;10.50;70.72
71424;BME280;59240;51.370;-0.486;2023-03-14T11:45:25;100619.47;;;11.01;77.54
71424;BME280;59240;51.370;-0.486;2023-03-14T11:48:07;100605.09;;;11.17;79.13
71424;BME280;59240;51.370;-0.486;2023-03-14T11:50:40;100611.22;;;11.16;72.66
71424;BME280;59240;51.370;-0.486;2023-03-14T11:55:46;100634.81;;;10.77;74.37
71424;BME280;59240;51.370;-0.486;2023-03-14T11:58:34;100663.78;;;11.01;69.90
71424;BME280;59240;51.370;-0.486;2023-03-14T12:01:14;100640.81;;;10.81;74.53
71424;BME280;59240;51.370;-0.486;2023-03-14T12:04:00;100685.72;;;10.92;69.03
71424;BME280;59240;51.370;-0.486;2023-03-14T12:06:46;100662.97;;;10.63;64.72
71424;BME280;59240;51.370;-0.486;2023-03-14T12:09:15;100681.50;;;10.86;71.06
71424;BME280;59240;51.370;-0.486;2023-03-14T12:11:55;100693.56;;;10.90;69.49
71424;BME280;59240;51.370;-0.486;2023-03-14T12:14:30;100687.00;;;10.74;72.72
71424;BME280;59240;51.370;-0.486;2023-03-14T12:17:13;100685.34;;;10.34;60.52
71424;BME280;59240;51.370;-0.486;2023-03-14T12:19:45;100685.59;;;10.24;64.48
71424;BME280;59240;51.370;-0.486;2023-03-14T12:22:28;100705.56;;;10.20;67.05
71424;BME280;59240;51.370;-0.486;2023-03-14T12:27:43;100724.34;;;9.96;66.67
71424;BME280;59240;51.370;-0.486;2023-03-14T12:35:45;100715.69;;;10.35;71.73
71424;BME280;59240;51.370;-0.486;2023-03-14T12:38:31;100717.59;;;10.66;67.00
71424;BME280;59240;51.370;-0.486;2023-03-14T12:41:34;100727.94;;;11.05;67.14
71424;BME280;59240;51.370;-0.486;2023-03-14T12:50:13;100709.53;;;10.39;68.90
71424;BME280;59240;51.370;-0.486;2023-03-14T12:58:44;100718.41;;;9.87;69.47
71424;BME280;59240;51.370;-0.486;2023-03-14T13:01:17;100711.44;;;9.90;61.40
71424;BME280;59240;51.370;-0.486;2023-03-14T13:03:54;100715.13;;;10.23;70.93
71424;BME280;59240;51.370;-0.486;2023-03-14T13:06:51;100754.31;;;10.57;53.29
71424;BME280;59240;51.370;-0.486;2023-03-14T13:12:00;100694.69;;;10.80;70.09
71424;BME280;59240;51.370;-0.486;2023-03-14T13:14:33;100738.88;;;11.20;70.38
71424;BME280;59240;51.370;-0.486;2023-03-14T13:17:02;100737.16;;;11.52;66.34
71424;BME280;59240;51.370;-0.486;2023-03-14T13:20:22;100692.22;;;11.42;66.97
71424;BME280;59240;51.370;-0.486;2023-03-14T13:22:51;100724.59;;;11.68;65.75
71424;BME280;59240;51.370;-0.486;2023-03-14T13:33:21;100717.81;;;11.61;53.54
71424;BME280;59240;51.370;-0.486;2023-03-14T13:36:13;100676.34;;;11.19;59.27
71424;BME280;59240;51.370;-0.486;2023-03-14T13:39:21;100672.41;;;11.03;59.57
71424;BME280;59240;51.370;-0.486;2023-03-14T13:41:48;100741.91;;;11.38;65.85
71424;BME280;59240;51.370;-0.486;2023-03-14T13:44:36;100756.94;;;11.28;61.59
71424;BME280;59240;51.370;-0.486;2023-03-14T13:47:10;100737.84;;;10.92;57.74
71424;BME280;59240;51.370;-0.486;2023-03-14T13:49:39;100724.69;;;10.96;65.86
71424;BME280;59240;51.370;-0.486;2023-03-14T13:52:30;100777.41;;;11.43;67.28
71424;BME280;59240;51.370;-0.486;2023-03-14T13:54:59;100753.06;;;11.43;62.73
71424;BME280;59240;51.370;-0.486;2023-03-14T13:57:29;100753.03;;;11.44;63.40
71424;BME280;59240;51.370;-0.486;2023-03-14T14:00:24;100767.88;;;11.75;63.07
71424;BME280;59240;51.370;-0.486;2023-03-14T14:10:14;100773.31;;;11.66;57.06
71424;BME280;59240;51.370;-0.486;2023-03-14T14:12:47;100766.94;;;11.77;64.80
71424;BME280;59240;51.370;-0.486;2023-03-14T14:15:26;100748.59;;;11.82;64.81
71424;BME280;59240;51.370;-0.486;2023-03-14T14:21:47;100819.47;;;12.30;56.43
71424;BME280;59240;51.370;-0.486;2023-03-14T14:24:19;100827.78;;;11.81;53.14
71424;BME280;59240;51.370;-0.486;2023-03-14T14:26:53;100840.81;;;11.47;50.28
71424;BME280;59240;51.370;-0.486;2023-03-14T14:29:32;100814.16;;;10.99;54.38
71424;BME280;59240;51.370;-0.486;2023-03-14T14:34:46;100850.59;;;11.00;52.96
71424;BME280;59240;51.370;-0.486;2023-03-14T14:37:24;100817.38;;;11.08;58.66
71424;BME280;59240;51.370;-0.486;2023-03-14T14:40:14;100760.81;;;11.12;58.19
71424;BME280;59240;51.370;-0.486;2023-03-14T14:43:02;100817.34;;;11.81;53.61
71424;BME280;59240;51.370;-0.486;2023-03-14T14:45:34;100826.03;;;12.13;52.23